createdAt,value
2017-10-24T00:00:25.060Z,0
2017-10-24T00:01:05.632Z,0
2017-10-24T00:01:46.204Z,0
2017-10-24T00:02:26.776Z,0
2017-10-24T00:03:07.365Z,0
2017-10-24T00:03:47.929Z,0
2017-10-24T00:04:28.492Z,0
2017-10-24T00:05:09.065Z,0
2017-10-24T00:05:49.633Z,0
2017-10-24T00:06:30.200Z,0
2017-10-24T00:07:10.768Z,0
2017-10-24T00:07:51.376Z,0
2017-10-24T00:08:31.920Z,0
2017-10-24T00:09:12.498Z,0
2017-10-24T00:09:53.069Z,0
2017-10-24T00:10:33.642Z,0
2017-10-24T00:11:14.220Z,0
2017-10-24T00:11:54.783Z,0
2017-10-24T00:12:35.397Z,0
2017-10-24T00:13:15.972Z,0
2017-10-24T00:13:56.536Z,0
2017-10-24T00:14:37.148Z,0
2017-10-24T00:15:17.717Z,0
2017-10-24T00:15:58.295Z,0
2017-10-24T00:16:38.862Z,0
2017-10-24T00:17:19.442Z,0
2017-10-24T00:18:00.010Z,0
2017-10-24T00:18:40.616Z,0
2017-10-24T00:19:21.185Z,0
2017-10-24T00:20:01.753Z,0
2017-10-24T00:20:42.317Z,0
2017-10-24T00:21:22.910Z,0
2017-10-24T00:22:03.500Z,0
2017-10-24T00:22:44.074Z,0
2017-10-24T00:23:24.747Z,0
2017-10-24T00:24:05.310Z,0
2017-10-24T00:24:45.890Z,0
2017-10-24T00:25:26.471Z,0
2017-10-24T00:26:07.068Z,0
2017-10-24T00:26:47.643Z,0
2017-10-24T00:27:28.280Z,0
2017-10-24T00:28:08.839Z,0
2017-10-24T00:28:49.413Z,0
2017-10-24T00:29:29.977Z,0
2017-10-24T00:30:10.533Z,0
2017-10-24T00:30:51.105Z,0
2017-10-24T00:31:31.712Z,0
2017-10-24T00:32:12.292Z,0
2017-10-24T00:32:52.842Z,0
2017-10-24T00:33:33.400Z,0
2017-10-24T00:34:13.979Z,0
2017-10-24T00:34:54.564Z,0
2017-10-24T00:35:35.125Z,0
2017-10-24T00:36:15.699Z,0
2017-10-24T00:36:56.286Z,0
2017-10-24T00:37:36.871Z,0
2017-10-24T00:38:17.449Z,0
2017-10-24T00:38:58.049Z,0
2017-10-24T00:39:38.617Z,0
2017-10-24T00:40:19.181Z,0
2017-10-24T00:40:59.766Z,0
2017-10-24T00:41:40.355Z,0
2017-10-24T00:42:20.924Z,0
2017-10-24T00:43:01.499Z,0
2017-10-24T00:43:42.099Z,0
2017-10-24T00:44:22.679Z,0
2017-10-24T00:45:03.282Z,0
2017-10-24T00:45:43.852Z,0
2017-10-24T00:46:24.433Z,0
2017-10-24T00:47:05.007Z,0
2017-10-24T00:47:45.584Z,0
2017-10-24T00:48:26.150Z,0
2017-10-24T00:49:06.732Z,0
2017-10-24T00:49:47.390Z,0
2017-10-24T00:50:27.954Z,0
2017-10-24T00:51:08.564Z,0
2017-10-24T00:51:49.141Z,0
2017-10-24T00:52:29.723Z,0
2017-10-24T00:53:10.373Z,0
2017-10-24T00:53:50.920Z,0
2017-10-24T00:54:31.515Z,0
2017-10-24T00:55:12.101Z,0
2017-10-24T00:55:52.670Z,0
2017-10-24T00:56:33.238Z,0
2017-10-24T00:57:13.818Z,0
2017-10-24T00:57:54.442Z,0
2017-10-24T00:58:35.038Z,0
2017-10-24T00:59:15.609Z,0
2017-10-24T00:59:56.192Z,0
2017-10-24T01:00:36.770Z,0
2017-10-24T01:01:17.347Z,0
2017-10-24T01:01:57.938Z,0
2017-10-24T01:02:38.516Z,0
2017-10-24T01:03:19.101Z,0
2017-10-24T01:03:59.687Z,0
2017-10-24T01:04:40.265Z,0
2017-10-24T01:05:20.839Z,0
2017-10-24T01:06:01.391Z,0
2017-10-24T01:06:41.954Z,0
2017-10-24T01:07:22.567Z,0
2017-10-24T01:08:03.155Z,0
2017-10-24T01:08:43.758Z,0
2017-10-24T01:09:24.389Z,0
2017-10-24T01:10:04.982Z,0
2017-10-24T01:10:45.570Z,0
2017-10-24T01:11:26.163Z,0
2017-10-24T01:12:06.753Z,0
2017-10-24T01:12:47.330Z,0
2017-10-24T01:13:27.925Z,0
2017-10-24T01:14:08.490Z,0
2017-10-24T01:14:49.063Z,0
2017-10-24T01:15:29.635Z,0
2017-10-24T01:16:10.245Z,0
2017-10-24T01:16:50.819Z,0
2017-10-24T01:17:31.442Z,0
2017-10-24T01:18:12.041Z,0
2017-10-24T01:18:52.661Z,0
2017-10-24T01:19:33.255Z,0
2017-10-24T01:20:13.860Z,0
2017-10-24T01:20:54.504Z,0
2017-10-24T01:21:35.072Z,0
2017-10-24T01:22:15.679Z,0
2017-10-24T01:22:56.273Z,0
2017-10-24T01:23:36.895Z,0
2017-10-24T01:24:17.495Z,0
2017-10-24T01:24:58.082Z,0
2017-10-24T01:25:38.668Z,0
2017-10-24T01:26:19.244Z,0
2017-10-24T01:26:59.859Z,0
2017-10-24T01:27:40.456Z,0
2017-10-24T01:28:21.043Z,0
2017-10-24T01:29:01.674Z,0
2017-10-24T01:29:42.249Z,0
2017-10-24T01:30:22.876Z,0
2017-10-24T01:31:03.525Z,0
2017-10-24T01:31:44.105Z,0
2017-10-24T01:32:24.695Z,0
2017-10-24T01:33:05.272Z,0
2017-10-24T01:33:45.873Z,0
2017-10-24T01:34:26.456Z,0
2017-10-24T01:35:07.057Z,0
2017-10-24T01:35:47.660Z,0
2017-10-24T01:36:28.227Z,0
2017-10-24T01:37:08.839Z,0
2017-10-24T01:37:49.455Z,0
2017-10-24T01:38:30.041Z,0
2017-10-24T01:39:10.658Z,0
2017-10-24T01:39:51.290Z,0
2017-10-24T01:40:31.945Z,0
2017-10-24T01:41:12.562Z,0
2017-10-24T01:41:53.154Z,0
2017-10-24T01:42:33.762Z,0
2017-10-24T01:43:14.330Z,0
2017-10-24T01:43:54.912Z,0
2017-10-24T01:44:35.502Z,0
2017-10-24T01:45:16.123Z,0
2017-10-24T01:45:56.719Z,0
2017-10-24T01:46:37.292Z,0
2017-10-24T01:47:17.910Z,0
2017-10-24T01:47:58.491Z,0
2017-10-24T01:48:39.092Z,0
2017-10-24T01:49:19.724Z,0
2017-10-24T01:50:00.298Z,0
2017-10-24T01:50:40.874Z,0
2017-10-24T01:51:21.473Z,0
2017-10-24T01:52:02.052Z,0
2017-10-24T01:52:42.639Z,0
2017-10-24T01:53:23.239Z,0
2017-10-24T01:54:03.845Z,0
2017-10-24T01:54:44.444Z,0
2017-10-24T01:55:25.067Z,0
2017-10-24T01:56:05.664Z,0
2017-10-24T01:56:46.247Z,0
2017-10-24T01:57:26.853Z,0
2017-10-24T01:58:07.445Z,0
2017-10-24T01:58:48.110Z,0
2017-10-24T01:59:28.726Z,0
2017-10-24T02:00:09.360Z,0
2017-10-24T02:00:49.940Z,0
2017-10-24T02:01:30.538Z,0
2017-10-24T02:02:11.153Z,0
2017-10-24T02:02:51.735Z,0
2017-10-24T02:03:32.350Z,0
2017-10-24T02:04:12.939Z,0
2017-10-24T02:04:53.535Z,0
2017-10-24T02:05:34.100Z,0
2017-10-24T02:06:14.677Z,0
2017-10-24T02:06:55.251Z,0
2017-10-24T02:07:35.837Z,0
2017-10-24T02:08:16.392Z,0
2017-10-24T02:08:56.965Z,0
2017-10-24T02:09:37.584Z,0
2017-10-24T02:10:18.176Z,0
2017-10-24T02:10:58.740Z,0
2017-10-24T02:11:39.332Z,0
2017-10-24T02:12:19.898Z,0
2017-10-24T02:13:00.492Z,0
2017-10-24T02:13:41.072Z,0
2017-10-24T02:14:21.658Z,0
2017-10-24T02:15:02.324Z,0
2017-10-24T02:15:42.896Z,0
2017-10-24T02:16:23.477Z,0
2017-10-24T02:17:04.084Z,0
2017-10-24T02:17:44.657Z,0
2017-10-24T02:18:25.250Z,0
2017-10-24T02:19:05.824Z,0
2017-10-24T02:19:46.415Z,0
2017-10-24T02:20:27.015Z,0
2017-10-24T02:21:07.584Z,0
2017-10-24T02:21:48.166Z,0
2017-10-24T02:22:28.776Z,0
2017-10-24T02:23:09.340Z,0
2017-10-24T02:23:49.947Z,0
2017-10-24T02:24:30.528Z,0
2017-10-24T02:25:11.141Z,0
2017-10-24T02:25:51.736Z,0
2017-10-24T02:26:32.354Z,0
2017-10-24T02:27:12.954Z,0
2017-10-24T02:27:53.568Z,0
2017-10-24T02:28:34.183Z,0
2017-10-24T02:29:14.795Z,0
2017-10-24T02:29:55.353Z,0
2017-10-24T02:30:36.000Z,0
2017-10-24T02:31:16.587Z,0
2017-10-24T02:31:57.161Z,0
2017-10-24T02:32:37.781Z,0
2017-10-24T02:33:18.387Z,0
2017-10-24T02:33:58.958Z,0
2017-10-24T02:34:39.527Z,0
2017-10-24T02:35:20.107Z,0
2017-10-24T02:36:00.704Z,0
2017-10-24T02:36:41.265Z,0
2017-10-24T02:37:21.859Z,0
2017-10-24T02:38:02.437Z,0
2017-10-24T02:38:43.026Z,0
2017-10-24T02:39:23.601Z,0
2017-10-24T02:40:04.199Z,0
2017-10-24T02:40:44.777Z,0
2017-10-24T02:41:25.386Z,0
2017-10-24T02:42:06.005Z,0
2017-10-24T02:42:46.616Z,0
2017-10-24T02:43:27.176Z,0
2017-10-24T02:44:07.758Z,0
2017-10-24T02:44:48.360Z,0
2017-10-24T02:45:28.989Z,0
2017-10-24T02:46:09.564Z,0
2017-10-24T02:46:50.176Z,0
2017-10-24T02:47:30.800Z,0
2017-10-24T02:48:11.365Z,0
2017-10-24T02:48:51.910Z,0
2017-10-24T02:49:32.500Z,0
2017-10-24T02:50:13.175Z,0
2017-10-24T02:50:53.771Z,0
2017-10-24T02:51:34.340Z,0
2017-10-24T02:52:14.930Z,0
2017-10-24T02:52:55.515Z,0
2017-10-24T02:53:36.092Z,0
2017-10-24T02:54:16.744Z,0
2017-10-24T02:54:57.317Z,0
2017-10-24T02:55:37.916Z,0
2017-10-24T02:56:18.514Z,0
2017-10-24T02:56:59.096Z,0
2017-10-24T02:57:39.694Z,0
2017-10-24T02:58:20.250Z,0
2017-10-24T02:59:00.837Z,0
2017-10-24T02:59:41.451Z,0
2017-10-24T03:00:22.018Z,0
2017-10-24T03:01:02.605Z,0
2017-10-24T03:01:43.215Z,0
2017-10-24T03:02:23.791Z,0
2017-10-24T03:03:04.375Z,0
2017-10-24T03:03:44.944Z,0
2017-10-24T03:04:25.512Z,0
2017-10-24T03:05:06.112Z,0
2017-10-24T03:05:46.786Z,0
2017-10-24T03:06:27.454Z,0
2017-10-24T03:07:08.042Z,0
2017-10-24T03:07:48.659Z,0
2017-10-24T03:08:29.237Z,0
2017-10-24T03:09:09.874Z,0
2017-10-24T03:09:50.508Z,0
2017-10-24T03:10:31.084Z,0
2017-10-24T03:11:11.714Z,0
2017-10-24T03:11:52.287Z,0
2017-10-24T03:12:32.870Z,0
2017-10-24T03:13:13.434Z,0
2017-10-24T03:13:54.002Z,0
2017-10-24T03:14:34.580Z,0
2017-10-24T03:15:15.169Z,0
2017-10-24T03:15:55.741Z,0
2017-10-24T03:16:36.334Z,0
2017-10-24T03:17:16.950Z,0
2017-10-24T03:17:57.544Z,0
2017-10-24T03:18:38.163Z,0
2017-10-24T03:19:18.825Z,0
2017-10-24T03:19:59.375Z,0
2017-10-24T03:20:39.948Z,0
2017-10-24T03:21:20.512Z,0
2017-10-24T03:22:01.093Z,0
2017-10-24T03:22:41.680Z,0
2017-10-24T03:23:22.260Z,0
2017-10-24T03:24:02.849Z,0
2017-10-24T03:24:43.464Z,0
2017-10-24T03:25:24.025Z,0
2017-10-24T03:26:04.603Z,0
2017-10-24T03:26:45.197Z,0
2017-10-24T03:27:25.773Z,0
2017-10-24T03:28:06.359Z,0
2017-10-24T03:28:46.923Z,0
2017-10-24T03:29:27.509Z,0
2017-10-24T03:30:08.099Z,0
2017-10-24T03:30:48.656Z,0
2017-10-24T03:31:29.281Z,0
2017-10-24T03:32:10.131Z,0
2017-10-24T03:32:50.847Z,0
2017-10-24T03:33:31.628Z,0
2017-10-24T03:34:12.534Z,0
2017-10-24T03:34:53.247Z,0
2017-10-24T03:35:34.037Z,0
2017-10-24T03:36:14.680Z,0
2017-10-24T03:36:55.363Z,0
2017-10-24T03:37:36.042Z,0
2017-10-24T03:38:16.874Z,0
2017-10-24T03:38:57.536Z,0
2017-10-24T03:39:38.208Z,0
2017-10-24T03:40:18.809Z,0
2017-10-24T03:40:59.573Z,0
2017-10-24T03:41:40.306Z,0
2017-10-24T03:42:21.164Z,0
2017-10-24T03:43:02.412Z,0
2017-10-24T03:43:43.340Z,0
2017-10-24T03:44:24.091Z,0
2017-10-24T03:45:05.064Z,0
2017-10-24T03:45:45.728Z,0
2017-10-24T03:46:26.518Z,0
2017-10-24T03:47:07.186Z,0
2017-10-24T03:47:47.998Z,0
2017-10-24T03:48:28.568Z,0
2017-10-24T03:49:09.109Z,0
2017-10-24T03:49:49.758Z,0
2017-10-24T03:50:30.576Z,0
2017-10-24T03:51:11.441Z,0
2017-10-24T03:51:52.196Z,0
2017-10-24T03:52:32.998Z,0
2017-10-24T03:53:13.633Z,0
2017-10-24T03:53:54.491Z,0
2017-10-24T03:54:35.189Z,0
2017-10-24T03:55:15.803Z,0
2017-10-24T03:55:56.388Z,0
2017-10-24T03:56:37.188Z,0
2017-10-24T03:57:17.791Z,0
2017-10-24T03:57:58.653Z,0
2017-10-24T03:58:39.275Z,0
2017-10-24T03:59:19.976Z,0
2017-10-24T04:00:00.584Z,0
2017-10-24T04:00:41.270Z,0
2017-10-24T04:01:21.898Z,0
2017-10-24T04:02:02.685Z,0
2017-10-24T04:02:43.360Z,0
2017-10-24T04:03:24.110Z,0
2017-10-24T04:04:04.805Z,0
2017-10-24T04:04:45.457Z,0
2017-10-24T04:05:26.062Z,0
2017-10-24T04:06:06.664Z,0
2017-10-24T04:06:47.247Z,0
2017-10-24T04:07:27.850Z,0
2017-10-24T04:08:08.446Z,0
2017-10-24T04:08:49.137Z,0
2017-10-24T04:09:30.061Z,0
2017-10-24T04:10:10.615Z,0
2017-10-24T04:10:51.270Z,0
2017-10-24T04:11:32.157Z,0
2017-10-24T04:12:12.715Z,0
2017-10-24T04:12:53.499Z,0
2017-10-24T04:13:34.154Z,0
2017-10-24T04:14:14.781Z,0
2017-10-24T04:14:55.529Z,0
2017-10-24T04:15:36.206Z,0
2017-10-24T04:16:16.886Z,0
2017-10-24T04:16:57.509Z,0
2017-10-24T04:17:38.271Z,0
2017-10-24T04:18:18.841Z,0
2017-10-24T04:18:59.651Z,0
2017-10-24T04:19:40.283Z,0
2017-10-24T04:20:21.088Z,0
2017-10-24T04:21:01.684Z,0
2017-10-24T04:21:42.355Z,0
2017-10-24T04:22:23.257Z,0
2017-10-24T04:23:04.043Z,0
2017-10-24T04:23:44.695Z,0
2017-10-24T04:24:25.355Z,0
2017-10-24T04:25:06.078Z,0
2017-10-24T04:25:46.753Z,0
2017-10-24T04:26:27.466Z,0
2017-10-24T04:27:08.164Z,0
2017-10-24T04:27:48.879Z,0
2017-10-24T04:28:29.582Z,0
2017-10-24T04:29:10.137Z,0
2017-10-24T04:29:50.822Z,0
2017-10-24T04:30:31.580Z,0
2017-10-24T04:31:12.189Z,0
2017-10-24T04:31:52.792Z,0
2017-10-24T04:32:33.383Z,0
2017-10-24T04:33:13.982Z,0
2017-10-24T04:33:54.719Z,0
2017-10-24T04:34:35.339Z,0
2017-10-24T04:35:15.998Z,0
2017-10-24T04:35:56.594Z,0
2017-10-24T04:36:37.200Z,0
2017-10-24T04:37:17.833Z,0
2017-10-24T04:37:58.424Z,0
2017-10-24T04:38:39.100Z,0
2017-10-24T04:39:20.125Z,0
2017-10-24T04:40:00.755Z,0
2017-10-24T04:40:41.470Z,0
2017-10-24T04:41:22.125Z,0
2017-10-24T04:42:02.719Z,0
2017-10-24T04:42:43.306Z,0
2017-10-24T04:43:23.936Z,0
2017-10-24T04:44:04.578Z,0
2017-10-24T04:44:45.418Z,0
2017-10-24T04:45:26.113Z,0
2017-10-24T04:46:06.769Z,0
2017-10-24T04:46:47.394Z,0
2017-10-24T04:47:28.004Z,0
2017-10-24T04:48:08.615Z,0
2017-10-24T04:48:49.252Z,0
2017-10-24T04:49:29.884Z,0
2017-10-24T04:50:10.476Z,0
2017-10-24T04:50:51.109Z,0
2017-10-24T04:51:32.127Z,0
2017-10-24T04:52:12.850Z,0
2017-10-24T04:52:53.471Z,0
2017-10-24T04:53:34.109Z,0
2017-10-24T04:54:14.695Z,0
2017-10-24T04:54:55.339Z,0
2017-10-24T04:55:35.973Z,0
2017-10-24T04:56:16.560Z,0
2017-10-24T04:56:57.218Z,0
2017-10-24T04:57:37.850Z,0
2017-10-24T04:58:18.509Z,0
2017-10-24T04:58:59.117Z,0
2017-10-24T04:59:39.739Z,0
2017-10-24T05:00:20.367Z,0
2017-10-24T05:01:00.976Z,0
2017-10-24T05:01:41.581Z,0
2017-10-24T05:02:22.253Z,0
2017-10-24T05:03:02.842Z,0
2017-10-24T05:03:43.460Z,0
2017-10-24T05:04:24.090Z,0
2017-10-24T05:05:04.705Z,0
2017-10-24T05:05:45.326Z,0
2017-10-24T05:06:25.935Z,0
2017-10-24T05:07:06.523Z,0
2017-10-24T05:07:47.115Z,0
2017-10-24T05:08:27.709Z,0
2017-10-24T05:09:08.287Z,0
2017-10-24T05:09:48.901Z,0
2017-10-24T05:10:29.491Z,0
2017-10-24T05:11:10.126Z,0
2017-10-24T05:11:50.739Z,0
2017-10-24T05:12:31.317Z,0
2017-10-24T05:13:11.920Z,0
2017-10-24T05:13:52.531Z,0
2017-10-24T05:14:33.157Z,0
2017-10-24T05:15:13.824Z,0
2017-10-24T05:15:54.441Z,0
2017-10-24T05:16:35.053Z,0
2017-10-24T05:17:15.669Z,0
2017-10-24T05:17:56.295Z,0
2017-10-24T05:18:36.906Z,0
2017-10-24T05:19:17.541Z,0
2017-10-24T05:19:58.167Z,0
2017-10-24T05:20:38.774Z,0
2017-10-24T05:21:19.398Z,0
2017-10-24T05:22:00.006Z,0
2017-10-24T05:22:40.604Z,0
2017-10-24T05:23:21.218Z,0
2017-10-24T05:24:01.813Z,0
2017-10-24T05:24:42.513Z,0
2017-10-24T05:25:23.110Z,0
2017-10-24T05:26:03.703Z,0
2017-10-24T05:26:44.300Z,0
2017-10-24T05:27:24.907Z,0
2017-10-24T05:28:05.510Z,0
2017-10-24T05:28:46.103Z,0
2017-10-24T05:29:26.682Z,0
2017-10-24T05:30:07.266Z,0
2017-10-24T05:30:47.867Z,0
2017-10-24T05:31:28.422Z,0
2017-10-24T05:32:09.045Z,0
2017-10-24T05:32:49.639Z,0
2017-10-24T05:33:30.210Z,0
2017-10-24T05:34:10.802Z,0
2017-10-24T05:34:51.374Z,0
2017-10-24T05:35:31.945Z,0
2017-10-24T05:36:12.521Z,0
2017-10-24T05:36:53.096Z,0
2017-10-24T05:37:33.660Z,0
2017-10-24T05:38:14.223Z,0
2017-10-24T05:38:54.841Z,0
2017-10-24T05:39:35.419Z,0
2017-10-24T05:40:15.984Z,0
2017-10-24T05:40:56.574Z,0
2017-10-24T05:41:37.135Z,0
2017-10-24T05:42:17.806Z,0
2017-10-24T05:42:58.385Z,0
2017-10-24T05:43:39.045Z,0
2017-10-24T05:44:19.612Z,0
2017-10-24T05:45:02.115Z,0
2017-10-24T05:45:42.707Z,0
2017-10-24T05:46:23.283Z,0
2017-10-24T05:47:03.883Z,0
2017-10-24T05:47:44.528Z,0
2017-10-24T05:48:25.123Z,0
2017-10-24T05:49:05.720Z,0
2017-10-24T05:49:46.319Z,0
2017-10-24T05:50:26.964Z,0
2017-10-24T05:51:07.579Z,0
2017-10-24T05:51:48.143Z,0
2017-10-24T05:52:28.723Z,0
2017-10-24T05:53:09.420Z,0
2017-10-24T05:53:49.998Z,0
2017-10-24T05:54:30.612Z,0
2017-10-24T05:55:11.184Z,0
2017-10-24T05:55:51.800Z,0
2017-10-24T05:56:32.380Z,0
2017-10-24T05:57:13.018Z,0
2017-10-24T05:57:53.616Z,0
2017-10-24T05:58:34.188Z,0
2017-10-24T05:59:14.831Z,0
2017-10-24T05:59:55.396Z,0
2017-10-24T06:00:36.015Z,0
2017-10-24T06:01:16.607Z,0
2017-10-24T06:01:57.227Z,0
2017-10-24T06:02:37.855Z,0
2017-10-24T06:03:18.433Z,0
2017-10-24T06:03:59.244Z,0
2017-10-24T06:04:39.833Z,0
2017-10-24T06:05:20.430Z,0
2017-10-24T06:06:01.086Z,0
2017-10-24T06:06:41.715Z,0
2017-10-24T06:07:22.289Z,0
2017-10-24T06:08:02.903Z,0
2017-10-24T06:08:43.556Z,0
2017-10-24T06:09:24.145Z,0
2017-10-24T06:10:04.768Z,0
2017-10-24T06:10:45.379Z,0
2017-10-24T06:11:25.921Z,0
2017-10-24T06:12:06.546Z,0
2017-10-24T06:12:47.209Z,0
2017-10-24T06:13:27.844Z,0
2017-10-24T06:14:08.509Z,5
2017-10-24T06:14:49.168Z,5
2017-10-24T06:15:29.844Z,5
2017-10-24T06:16:10.437Z,5
2017-10-24T06:16:51.008Z,5
2017-10-24T06:17:31.642Z,5
2017-10-24T06:18:12.396Z,5
2017-10-24T06:18:52.988Z,5
2017-10-24T06:19:33.586Z,5
2017-10-24T06:20:14.165Z,5
2017-10-24T06:20:54.802Z,5
2017-10-24T06:21:35.431Z,5
2017-10-24T06:22:16.072Z,5
2017-10-24T06:22:56.678Z,5
2017-10-24T06:23:37.253Z,5
2017-10-24T06:24:17.880Z,5
2017-10-24T06:24:58.532Z,5
2017-10-24T06:25:39.169Z,5
2017-10-24T06:26:19.731Z,5
2017-10-24T06:27:00.346Z,5
2017-10-24T06:27:40.981Z,5
2017-10-24T06:28:21.660Z,0
2017-10-24T06:29:02.185Z,0
2017-10-24T06:29:42.800Z,0
2017-10-24T06:30:23.392Z,5
2017-10-24T06:31:03.983Z,5
2017-10-24T06:31:44.633Z,5
2017-10-24T06:32:25.201Z,5
2017-10-24T06:33:05.820Z,5
2017-10-24T06:33:46.382Z,5
2017-10-24T06:34:26.938Z,5
2017-10-24T06:35:07.570Z,5
2017-10-24T06:35:48.141Z,5
2017-10-24T06:36:28.711Z,5
2017-10-24T06:37:09.275Z,5
2017-10-24T06:37:49.860Z,5
2017-10-24T06:38:30.474Z,5
2017-10-24T06:39:11.095Z,5
2017-10-24T06:39:51.765Z,5
2017-10-24T06:40:32.501Z,5
2017-10-24T06:41:13.064Z,5
2017-10-24T06:41:53.620Z,5
2017-10-24T06:42:34.199Z,5
2017-10-24T06:43:14.810Z,5
2017-10-24T06:43:55.568Z,5
2017-10-24T06:44:36.196Z,5
2017-10-24T06:45:16.778Z,5
2017-10-24T06:45:57.462Z,5
2017-10-24T06:46:38.047Z,5
2017-10-24T06:47:18.620Z,5
2017-10-24T06:47:59.198Z,5
2017-10-24T06:48:39.770Z,5
2017-10-24T06:49:20.409Z,5
2017-10-24T06:50:01.158Z,5
2017-10-24T06:50:41.741Z,5
2017-10-24T06:51:22.301Z,5
2017-10-24T06:52:02.906Z,5
2017-10-24T06:52:43.542Z,5
2017-10-24T06:53:24.123Z,5
2017-10-24T06:54:04.700Z,10
2017-10-24T06:54:45.318Z,10
2017-10-24T06:55:25.886Z,10
2017-10-24T06:56:06.450Z,10
2017-10-24T06:56:47.022Z,10
2017-10-24T06:57:27.609Z,10
2017-10-24T06:58:08.180Z,10
2017-10-24T06:58:48.777Z,10
2017-10-24T06:59:29.361Z,10
2017-10-24T07:00:10.002Z,10
2017-10-24T07:00:50.572Z,10
2017-10-24T07:01:31.195Z,10
2017-10-24T07:02:11.803Z,10
2017-10-24T07:02:52.385Z,10
2017-10-24T07:03:32.981Z,10
2017-10-24T07:04:13.559Z,10
2017-10-24T07:04:54.183Z,10
2017-10-24T07:05:34.757Z,10
2017-10-24T07:06:15.335Z,10
2017-10-24T07:06:55.947Z,10
2017-10-24T07:07:36.527Z,10
2017-10-24T07:08:17.103Z,10
2017-10-24T07:08:57.684Z,15
2017-10-24T07:09:38.276Z,15
2017-10-24T07:10:18.875Z,15
2017-10-24T07:10:59.439Z,15
2017-10-24T07:11:40.047Z,15
2017-10-24T07:12:20.638Z,10
2017-10-24T07:13:01.246Z,10
2017-10-24T07:13:41.832Z,10
2017-10-24T07:14:22.449Z,10
2017-10-24T07:15:03.017Z,10
2017-10-24T07:15:43.589Z,10
2017-10-24T07:16:24.154Z,10
2017-10-24T07:17:04.763Z,10
2017-10-24T07:17:45.358Z,10
2017-10-24T07:18:25.969Z,10
2017-10-24T07:19:06.571Z,10
2017-10-24T07:19:47.139Z,10
2017-10-24T07:20:27.720Z,10
2017-10-24T07:21:08.303Z,10
2017-10-24T07:21:48.877Z,15
2017-10-24T07:22:29.510Z,15
2017-10-24T07:23:10.178Z,15
2017-10-24T07:23:50.798Z,15
2017-10-24T07:24:31.363Z,15
2017-10-24T07:25:11.982Z,15
2017-10-24T07:25:52.551Z,15
2017-10-24T07:26:33.134Z,15
2017-10-24T07:27:13.756Z,15
2017-10-24T07:27:54.344Z,15
2017-10-24T07:28:34.945Z,15
2017-10-24T07:29:15.567Z,15
2017-10-24T07:29:56.168Z,15
2017-10-24T07:30:36.774Z,15
2017-10-24T07:31:17.436Z,15
2017-10-24T07:31:58.019Z,15
2017-10-24T07:32:38.657Z,15
2017-10-24T07:33:19.263Z,15
2017-10-24T07:33:59.836Z,15
2017-10-24T07:34:40.418Z,15
2017-10-24T07:35:21.041Z,15
2017-10-24T07:36:01.636Z,15
2017-10-24T07:36:42.250Z,15
2017-10-24T07:37:22.865Z,15
2017-10-24T07:38:03.433Z,15
2017-10-24T07:38:44.073Z,15
2017-10-24T07:39:24.724Z,15
2017-10-24T07:40:05.323Z,15
2017-10-24T07:40:45.914Z,15
2017-10-24T07:41:26.539Z,15
2017-10-24T07:42:07.194Z,15
2017-10-24T07:42:47.831Z,15
2017-10-24T07:43:28.402Z,10
2017-10-24T07:44:09.012Z,10
2017-10-24T07:44:49.612Z,10
2017-10-24T07:45:30.187Z,10
2017-10-24T07:46:10.773Z,10
2017-10-24T07:46:51.358Z,10
2017-10-24T07:47:31.955Z,10
2017-10-24T07:48:12.543Z,10
2017-10-24T07:48:53.117Z,10
2017-10-24T07:49:33.765Z,10
2017-10-24T07:50:14.325Z,10
2017-10-24T07:50:54.970Z,10
2017-10-24T07:51:35.597Z,10
2017-10-24T07:52:16.225Z,10
2017-10-24T07:52:56.838Z,15
2017-10-24T07:53:37.482Z,15
2017-10-24T07:54:18.094Z,15
2017-10-24T07:54:58.674Z,15
2017-10-24T07:55:39.270Z,15
2017-10-24T07:56:19.910Z,20
2017-10-24T07:57:00.501Z,20
2017-10-24T07:57:41.115Z,20
2017-10-24T07:58:21.837Z,20
2017-10-24T07:59:02.448Z,20
2017-10-24T07:59:43.038Z,20
2017-10-24T08:00:23.608Z,20
2017-10-24T08:01:04.198Z,20
2017-10-24T08:01:44.777Z,20
2017-10-24T08:02:25.405Z,20
2017-10-24T08:03:05.992Z,20
2017-10-24T08:03:46.583Z,20
2017-10-24T08:04:27.180Z,20
2017-10-24T08:05:07.806Z,20
2017-10-24T08:05:48.380Z,20
2017-10-24T08:06:28.994Z,20
2017-10-24T08:07:09.582Z,20
2017-10-24T08:07:50.184Z,20
2017-10-24T08:08:30.766Z,20
2017-10-24T08:09:11.354Z,20
2017-10-24T08:09:51.968Z,20
2017-10-24T08:10:32.541Z,20
2017-10-24T08:11:13.150Z,20
2017-10-24T08:11:53.735Z,20
2017-10-24T08:12:34.335Z,20
2017-10-24T08:13:14.921Z,20
2017-10-24T08:13:55.576Z,20
2017-10-24T08:14:36.167Z,20
2017-10-24T08:15:16.764Z,20
2017-10-24T08:15:57.338Z,20
2017-10-24T08:16:37.920Z,20
2017-10-24T08:17:18.507Z,25
2017-10-24T08:17:59.119Z,20
2017-10-24T08:18:39.761Z,20
2017-10-24T08:19:20.377Z,25
2017-10-24T08:20:01.018Z,25
2017-10-24T08:20:41.601Z,25
2017-10-24T08:21:22.184Z,25
2017-10-24T08:22:02.802Z,25
2017-10-24T08:22:43.406Z,25
2017-10-24T08:23:24.006Z,25
2017-10-24T08:24:04.651Z,25
2017-10-24T08:24:45.256Z,25
2017-10-24T08:25:25.836Z,25
2017-10-24T08:26:06.427Z,25
2017-10-24T08:26:47.009Z,25
2017-10-24T08:27:27.612Z,25
2017-10-24T08:28:08.188Z,25
2017-10-24T08:28:48.978Z,25
2017-10-24T08:29:29.587Z,25
2017-10-24T08:30:10.171Z,25
2017-10-24T08:30:50.732Z,25
2017-10-24T08:31:31.302Z,30
2017-10-24T08:32:11.872Z,30
2017-10-24T08:32:52.441Z,30
2017-10-24T08:33:33.026Z,35
2017-10-24T08:34:13.599Z,35
2017-10-24T08:34:54.174Z,35
2017-10-24T08:35:34.795Z,35
2017-10-24T08:36:15.393Z,30
2017-10-24T08:36:56.015Z,30
2017-10-24T08:37:36.584Z,30
2017-10-24T08:38:17.152Z,30
2017-10-24T08:38:57.735Z,30
2017-10-24T08:39:38.345Z,30
2017-10-24T08:40:18.903Z,30
2017-10-24T08:40:59.479Z,30
2017-10-24T08:41:40.077Z,30
2017-10-24T08:42:20.656Z,30
2017-10-24T08:43:01.250Z,30
2017-10-24T08:43:41.868Z,30
2017-10-24T08:44:22.436Z,35
2017-10-24T08:45:03.004Z,35
2017-10-24T08:45:43.587Z,35
2017-10-24T08:46:24.179Z,35
2017-10-24T08:47:04.798Z,35
2017-10-24T08:47:45.369Z,35
2017-10-24T08:48:25.968Z,35
2017-10-24T08:49:06.579Z,35
2017-10-24T08:49:47.156Z,40
2017-10-24T08:50:27.767Z,45
2017-10-24T08:51:08.331Z,50
2017-10-24T08:51:48.921Z,50
2017-10-24T08:52:29.494Z,45
2017-10-24T08:53:10.099Z,50
2017-10-24T08:53:50.726Z,50
2017-10-24T08:54:31.343Z,50
2017-10-24T08:55:11.950Z,55
2017-10-24T08:55:52.578Z,55
2017-10-24T08:56:33.189Z,55
2017-10-24T08:57:13.751Z,55
2017-10-24T08:57:54.327Z,50
2017-10-24T08:58:34.897Z,50
2017-10-24T08:59:15.485Z,45
2017-10-24T08:59:56.059Z,45
2017-10-24T09:00:36.646Z,45
2017-10-24T09:01:17.224Z,40
2017-10-24T09:01:57.817Z,40
2017-10-24T09:02:38.428Z,40
2017-10-24T09:03:18.994Z,40
2017-10-24T09:03:59.564Z,40
2017-10-24T09:04:40.203Z,40
2017-10-24T09:05:20.773Z,40
2017-10-24T09:06:01.390Z,40
2017-10-24T09:06:42.124Z,40
2017-10-24T09:07:22.740Z,45
2017-10-24T09:08:03.353Z,45
2017-10-24T09:08:43.914Z,45
2017-10-24T09:09:24.511Z,45
2017-10-24T09:10:05.082Z,45
2017-10-24T09:10:45.698Z,50
2017-10-24T09:11:26.295Z,50
2017-10-24T09:12:06.882Z,50
2017-10-24T09:12:47.515Z,55
2017-10-24T09:13:28.148Z,60
2017-10-24T09:14:08.721Z,60
2017-10-24T09:14:49.307Z,60
2017-10-24T09:15:29.881Z,60
2017-10-24T09:16:10.448Z,55
2017-10-24T09:16:51.061Z,55
2017-10-24T09:17:31.679Z,60
2017-10-24T09:18:12.290Z,65
2017-10-24T09:18:52.915Z,70
2017-10-24T09:19:33.532Z,70
2017-10-24T09:20:14.129Z,70
2017-10-24T09:20:54.751Z,70
2017-10-24T09:21:35.431Z,70
2017-10-24T09:22:16.044Z,70
2017-10-24T09:22:56.623Z,65
2017-10-24T09:23:37.236Z,60
2017-10-24T09:24:17.826Z,65
2017-10-24T09:24:58.470Z,70
2017-10-24T09:25:39.042Z,75
2017-10-24T09:26:19.658Z,80
2017-10-24T09:27:00.246Z,75
2017-10-24T09:27:40.831Z,75
2017-10-24T09:28:21.447Z,75
2017-10-24T09:29:02.042Z,75
2017-10-24T09:29:42.665Z,70
2017-10-24T09:30:23.250Z,70
2017-10-24T09:31:03.858Z,75
2017-10-24T09:31:44.442Z,85
2017-10-24T09:32:25.039Z,90
2017-10-24T09:33:05.694Z,115
2017-10-24T09:33:46.290Z,120
2017-10-24T09:34:26.879Z,125
2017-10-24T09:35:07.489Z,130
2017-10-24T09:35:48.123Z,130
2017-10-24T09:36:28.735Z,130
2017-10-24T09:37:09.344Z,130
2017-10-24T09:37:49.940Z,120
2017-10-24T09:38:30.530Z,115
2017-10-24T09:39:11.145Z,115
2017-10-24T09:39:51.754Z,110
2017-10-24T09:40:32.330Z,105
2017-10-24T09:41:12.958Z,100
2017-10-24T09:41:53.613Z,95
2017-10-24T09:42:34.265Z,90
2017-10-24T09:43:14.856Z,90
2017-10-24T09:43:55.472Z,90
2017-10-24T09:44:36.069Z,90
2017-10-24T09:45:16.667Z,85
2017-10-24T09:45:57.273Z,85
2017-10-24T09:46:37.875Z,85
2017-10-24T09:47:18.454Z,85
2017-10-24T09:47:59.093Z,85
2017-10-24T09:48:39.703Z,85
2017-10-24T09:49:20.293Z,85
2017-10-24T09:50:00.926Z,85
2017-10-24T09:50:41.502Z,85
2017-10-24T09:51:22.090Z,85
2017-10-24T09:52:02.675Z,80
2017-10-24T09:52:43.283Z,80
2017-10-24T09:53:23.879Z,85